Updated12/10/2018 09:1212 
 

Nearby Airport METAR Reports

 

KVSF - Springfield, Vermont, USA
Distance from station: WSW 8mi, 12km
Updated: 8:54am
Overcast
Overcast
 Wind from N
Wind: N 6 mph , 9 km/h
Temperature: 28°F , -2°C
Wind Chill: 21°F , -6°C
Dew Point: 16°F , -9°C
Humidity: 59%
Barometer: 30.11 inHg , 1019.6 hPa
Clouds: Overcast
Visibility: 10 miles , 16 km
Cloud details: Overcast 4100 ft
2018/12/10 13:54 KVSF 101354Z AUTO 01005KT 10SM OVC041 M02/M09 A3011 RMK AO2 SLP206 T10171089
KLEB - Lebanon, New Hampshire, USA
Distance from station: N 18mi, 29km
Updated: 8:53am
Mostly cloudy
Mostly cloudy
 Wind from NNW
Wind: NNW 8 mph , 13 km/h
Temperature: 28°F , -2°C
Wind Chill: 20°F , -7°C
Dew Point: 12°F , -11°C
Humidity: 51%
Barometer: 30.11 inHg , 1019.6 hPa
Clouds: Mostly cloudy
Visibility: 10 miles , 16 km
Cloud details: Mostly cloudy 3400 ft
2018/12/10 13:53 KLEB 101353Z 34007KT 10SM BKN034 M02/M11 A3011 RMK AO2 SLP208 T10171106
KRUT - Rutland State, Vermont, USA
Distance from station: WNW 31mi, 50km
Updated: 8:56am
Overcast
Overcast
 Wind from NNW
Wind: NNW 6 mph , 9 km/h
Temperature: 25°F , -4°C
Wind Chill: 18°F , -8°C
Dew Point: 18°F , -8°C
Humidity: 74%
Barometer: 30.12 inHg , 1020 hPa
Clouds: Overcast
Visibility: 10 miles , 16 km
Cloud details: Overcast 3700 ft
2018/12/10 13:56 KRUT 101356Z AUTO 33005KT 10SM OVC037 M04/M08 A3012 RMK AO2 SLP223 T10391078 FZRANO PNO $
 
KEEN - Keene/Dillant, New Hampshire, USA
Distance from station: S 34mi, 55km
Updated: 8:56am
Overcast
Overcast
 Wind from calm
Wind: Calm
Temperature: 21°F , -6°C
Dew Point: 19°F , -7°C
Humidity: 93%
Barometer: 30.12 inHg , 1020 hPa
Clouds: Overcast
Visibility: 10 miles , 16 km
Cloud details: Overcast 3700 ft
2018/12/10 13:56 KEEN 101356Z AUTO 00000KT 10SM OVC037 M06/M07 A3012 RMK AO2 SLP219 T10611072 FZRANO $
K1P1 - Plymouth, New Hampshire, USA
Distance from station: NE 42mi, 67km
Updated: 9:15am
Clear
Clear
 Wind from WSW
Wind: WSW 10 mph , 17 km/h, Gust: 18 mph , 30 km/h
Temperature: 28°F , -2°C
Wind Chill: 19°F , -7°C
Dew Point: 14°F , -10°C
Humidity: 55%
Barometer: 30.11 inHg , 1019.6 hPa
Clouds: Clear
Visibility: 10 miles , 16 km
2018/12/10 14:15 K1P1 101415Z AUTO 25009G16KT 230V330 10SM CLR M02/M10 A3011 RMK AO2 T10251103
KAFN - Jaffrey, New Hampshire, USA
Distance from station: SSE 44mi, 70km
Updated: 8:52am
Overcast
Overcast
 Wind from varies
Wind: varies 6 mph , 9 km/h
Temperature: 28°F , -2°C
Wind Chill: 21°F , -6°C
Dew Point: 18°F , -8°C
Humidity: 64%
Barometer: 30.07 inHg , 1018.3 hPa
Clouds: Overcast
Visibility: 10 miles , 16 km
Cloud details: Overcast 3300 ft
2018/12/10 13:52 KAFN 101352Z AUTO VRB05KT 10SM OVC033 M02/M08 A3007 RMK AO2 SLP201 T10221083
 
KCON - Concord, New Hampshire, USA
Distance from station: ESE 45mi, 73km
Updated: 8:51am
Clear
Clear
 Wind from N
Wind: N 10 mph , 17 km/h
Temperature: 30°F , -1°C
Wind Chill: 21°F , -6°C
Dew Point: 16°F , -9°C
Humidity: 55%
Barometer: 30.11 inHg , 1019.6 hPa
Clouds: Clear
Visibility: 10 miles , 16 km
2018/12/10 13:51 KCON 101351Z AUTO 35009KT 10SM CLR M01/M09 A3011 RMK AO2 SLP203 T10111089
KLCI - Laconia Muni, New Hampshire, USA
Distance from station: ENE 49mi, 80km
Updated: 8:56am
Overcast
Overcast
 Wind from WNW
Wind: WNW 8 mph , 13 km/h
Temperature: 30°F , -1°C
Wind Chill: 22°F , -6°C
Dew Point: 16°F , -9°C
Humidity: 55%
Barometer: 30.10 inHg , 1019.3 hPa
Clouds: Overcast
Visibility: 10 miles , 16 km
Cloud details: Overcast 3800 ft
2018/12/10 13:56 KLCI 101356Z AUTO 29007KT 10SM OVC038 M01/M09 A3010 RMK AO2 SLP211 T10111089 FZRANO $
KDDH - Bennington, Vermont, USA
Distance from station: SW 55mi, 89km
Updated: 8:54am
Overcast
Overcast
 Wind from NNW
Wind: NNW 5 mph , 7 km/h
Temperature: 30°F , -1°C
Wind Chill: 25°F , -4°C
Dew Point: 19°F , -7°C
Humidity: 64%
Barometer: 30.10 inHg , 1019.3 hPa
Clouds: Overcast
Visibility: 10 miles , 16 km
Cloud details: Overcast 3900 ft
2018/12/10 13:54 KDDH 101354Z AUTO 33004KT 10SM OVC039 M01/M07 A3010 RMK AO2 SLP202 T10111067
 
K6B0 - Middlebury, Vermont, USA
Distance from station: NW 56mi, 90km
Updated: 9:15am
Overcast
Overcast
 Wind from N
Wind: N 10 mph , 17 km/h
Temperature: 23°F , -5°C
Wind Chill: 13°F , -11°C
Dew Point: 12°F , -11°C
Humidity: 63%
Barometer: 30.17 inHg , 1021.7 hPa
Clouds: Overcast
Visibility: 10 miles , 16 km
Cloud details: Overcast 4100 ft
2018/12/10 14:15 K6B0 101415Z AUTO 36009KT 10SM OVC041 M05/M11 A3017 RMK AO2 T10501107
KMHT - Manchester, New Hampshire, USA
Distance from station: ESE 56mi, 90km
Updated: 8:53am
Few Clouds
Few Clouds
 Wind from N
Wind: N 17 mph , 28 km/h, Gust: 23 mph , 37 km/h
Temperature: 32°F , 0°C
Wind Chill: 21°F , -6°C
Dew Point: 16°F , -9°C
Humidity: 51%
Barometer: 30.09 inHg , 1019 hPa
Clouds: Few Clouds
Visibility: 10 miles , 16 km
Cloud details: Few Clouds 15000 ft
2018/12/10 13:53 KMHT 101353Z 35015G20KT 10SM FEW150 00/M09 A3009 RMK AO2 SLP208 T00001089
KORE - Orange, Massachusetts, USA
Distance from station: S 56mi, 90km
Updated: 8:52am
Clear
Clear
 Wind from calm
Wind: Calm
Temperature: 19°F , -7°C
Dew Point: 14°F , -10°C
Humidity: 79%
Barometer: 30.11 inHg , 1019.6 hPa
Clouds: Clear
Visibility: 10 miles , 16 km
2018/12/10 13:52 KORE 101352Z AUTO 00000KT 10SM CLR M07/M10 A3011 RMK AO2 SLP205 T10671100
 
KMPV - Montpelier/Barre, Vermont, USA
Distance from station: N 58mi, 93km
Updated: 8:51am
Light snow, Overcast
Light snow, Overcast
 Wind from WNW
Wind: WNW 9 mph , 15 km/h
Temperature: 19°F , -7°C
Wind Chill: 8°F , -13°C
Dew Point: 14°F , -10°C
Humidity: 79%
Barometer: 30.14 inHg , 1020.7 hPa
Summary: Light Snow
Clouds: Overcast
Visibility: 5 miles , 8 km
Cloud details: Overcast 2900 ft
2018/12/10 13:51 KMPV 101351Z AUTO 30008KT 5SM -SN OVC029 M07/M10 A3014 RMK AO2 SNB1253E25B36 SLP225 P0000 T10671100
KASH - Nashua/Boire Fld, New Hampshire, USA
Distance from station: SE 59mi, 95km
Updated: 8:56am
Clear
Clear
 Wind from NNW
Wind: NNW 9 mph , 15 km/h
Temperature: 30°F , -1°C
Wind Chill: 22°F , -6°C
Dew Point: 25°F , -4°C
Humidity: 80%
Barometer: 30.11 inHg , 1019.6 hPa
Clouds: Clear
Visibility: 10 miles , 16 km
2018/12/10 13:56 KASH 101356Z 33008KT 10SM CLR M01/M04 A3011 RMK AO2 SLP209 T10061044 $
KAQW - North Adams, Massachusetts, USA
Distance from station: SW 62mi, 99km
Updated: 8:52am
Mostly cloudy
Mostly cloudy
 Wind from WSW
Wind: WSW 3 mph , 6 km/h
Temperature: 28°F , -2°C
Dew Point: 21°F , -6°C
Humidity: 74%
Barometer: 30.11 inHg , 1019.6 hPa
Clouds: Mostly cloudy
Visibility: 10 miles , 16 km
Cloud details: Mostly cloudy 4000 ft
2018/12/10 13:52 KAQW 101352Z AUTO 24003KT 10SM BKN040 M02/M06 A3011 RMK AO2 SLP205 T10221061
 
KGFL - Glens Falls, New York, USA
Distance from station: W 63mi, 101km
Updated: 8:53am
Overcast
Overcast
 Wind from NE
Wind: NE 12 mph , 19 km/h
Temperature: 30°F , -1°C
Wind Chill: 20°F , -7°C
Dew Point: 19°F , -7°C
Humidity: 64%
Barometer: 30.15 inHg , 1021 hPa
Clouds: Overcast
Visibility: 10 miles , 16 km
Cloud details: Overcast 4200 ft
2018/12/10 13:53 KGFL 101353Z AUTO 04010KT 10SM OVC042 M01/M07 A3015 RMK AO2 SLP218 T10111067
KFIT - Fitchburg, Massachusetts, USA
Distance from station: SSE 65mi, 105km
Updated: 8:52am
Clear
Clear
 Wind from N
Wind: N 3 mph , 6 km/h
Temperature: 27°F , -3°C
Dew Point: 18°F , -8°C
Humidity: 69%
Barometer: 30.11 inHg , 1019.6 hPa
Clouds: Clear
Visibility: 10 miles , 16 km
2018/12/10 13:52 KFIT 101352Z AUTO 35003KT 10SM CLR M03/M08 A3011 RMK AO2 SLP200 T10331078
KDAW - Rochester, New Hampshire, USA
Distance from station: E 73mi, 118km
Updated: 8:51am
Clear
Clear
 Wind from NNW
Wind: NNW 8 mph , 13 km/h
Temperature: 28°F , -2°C
Wind Chill: 20°F , -7°C
Dew Point: 19°F , -7°C
Humidity: 69%
Barometer: 30.08 inHg , 1018.6 hPa
Clouds: Clear
Visibility: 10 miles , 16 km
2018/12/10 13:51 KDAW 101351Z AUTO 33007KT 10SM CLR M02/M07 A3008 RMK AO2 SLP187 T10171072
 
K1V4 - St. Johnsbury, Vermont, USA
Distance from station: NNE 74mi, 119km
Updated: 8:54am

 
Temperature: 19°F , -7°C
Dew Point: 10°F , -12°C
Humidity: 68%
Barometer: 30.13 inHg , 1020.3 hPa
2018/12/10 13:54 K1V4 101354Z AUTO M07/M12 A3013 RMK AO1 SLP221 T10721117
KLWM - Lawrence, Massachusetts, USA
Distance from station: SE 77mi, 124km
Updated: 8:54am
Clear
Clear
 Wind from NW
Wind: NW 6 mph , 9 km/h
Temperature: 32°F , 0°C
Wind Chill: 26°F , -3°C
Dew Point: 19°F , -7°C
Humidity: 60%
Barometer: 30.12 inHg , 1020 hPa
Clouds: Clear
Visibility: 10 miles , 16 km
2018/12/10 13:54 KLWM 101354Z 31005KT 10SM CLR 00/M07 A3012 RMK AO2 SLP202 T00001072



Flag Counter
free counter page views since 4/29/2009